createdAt,value
2023-05-23T00:00:14.479Z,98993.50
2023-05-23T00:02:43.786Z,98994.02
2023-05-23T00:05:11.420Z,98987.90
2023-05-23T00:07:38.979Z,98986.40
2023-05-23T00:10:07.182Z,98989.95
2023-05-23T00:12:34.882Z,98988.91
2023-05-23T00:15:03.001Z,98990.90
2023-05-23T00:17:30.691Z,98987.98
2023-05-23T00:19:58.305Z,98984.54
2023-05-23T00:22:26.075Z,98987.27
2023-05-23T00:24:53.629Z,98988.00
2023-05-23T00:27:21.188Z,98982.33
2023-05-23T00:29:48.670Z,98982.42
2023-05-23T00:32:16.336Z,98983.09
2023-05-23T00:34:45.608Z,98981.75
2023-05-23T00:37:13.556Z,98977.91
2023-05-23T00:39:41.229Z,98977.85
2023-05-23T00:42:08.919Z,98978.33
2023-05-23T00:44:36.455Z,98977.90
2023-05-23T00:47:06.133Z,98978.52
2023-05-23T00:49:34.128Z,98979.92
2023-05-23T00:52:01.606Z,98980.79
2023-05-23T00:54:31.480Z,98982.63
2023-05-23T00:56:59.259Z,98983.74
2023-05-23T00:59:27.556Z,98981.10
2023-05-23T01:01:56.644Z,98982.70
2023-05-23T01:04:28.522Z,98979.90
2023-05-23T01:06:56.183Z,98979.49
2023-05-23T01:09:28.346Z,98977.48
2023-05-23T01:12:14.619Z,98975.11
2023-05-23T01:14:43.778Z,98971.61
2023-05-23T01:17:16.358Z,98973.64
2023-05-23T01:19:53.270Z,98971.30
2023-05-23T01:22:49.468Z,98969.70
2023-05-23T01:25:36.365Z,98974.52
2023-05-23T01:28:05.994Z,98973.75
2023-05-23T01:30:35.484Z,98974.23
2023-05-23T01:33:03.030Z,98975.83
2023-05-23T01:35:31.275Z,98977.05
2023-05-23T01:37:58.904Z,98973.45
2023-05-23T01:40:26.598Z,98971.77
2023-05-23T01:42:55.886Z,98972.98
2023-05-23T01:45:23.529Z,98972.13
2023-05-23T01:47:51.329Z,98973.18
2023-05-23T01:50:19.263Z,98976.98
2023-05-23T01:52:48.039Z,98972.18
2023-05-23T01:55:18.983Z,98972.58
2023-05-23T01:57:49.850Z,98968.91
2023-05-23T02:00:17.990Z,98966.61
2023-05-23T02:02:47.703Z,98968.86
2023-05-23T02:05:16.825Z,98966.73
2023-05-23T02:07:44.256Z,98962.27
2023-05-23T02:10:11.814Z,98958.81
2023-05-23T02:12:39.257Z,98958.08
2023-05-23T02:15:07.888Z,98956.36
2023-05-23T02:17:35.451Z,98956.95
2023-05-23T02:20:03.070Z,98953.98
2023-05-23T02:22:32.056Z,98953.47
2023-05-23T02:24:59.529Z,98949.80
2023-05-23T02:27:27.479Z,98949.17
2023-05-23T02:29:55.247Z,98946.59
2023-05-23T02:32:22.726Z,98940.65
2023-05-23T02:34:50.592Z,98936.95
2023-05-23T02:37:18.092Z,98935.54
2023-05-23T02:39:45.710Z,98935.73
2023-05-23T02:42:14.571Z,98939.42
2023-05-23T02:44:42.439Z,98937.87
2023-05-23T02:47:10.100Z,98942.23
2023-05-23T02:49:37.836Z,98942.23
2023-05-23T02:52:07.022Z,98940.85
2023-05-23T02:54:34.457Z,98938.74
2023-05-23T02:57:01.963Z,98932.94
2023-05-23T02:59:30.934Z,98933.94
2023-05-23T03:01:58.768Z,98932.56
2023-05-23T03:04:27.815Z,98930.99
2023-05-23T03:06:55.394Z,98936.73
2023-05-23T03:09:23.137Z,98934.95
2023-05-23T03:11:51.513Z,98936.08
2023-05-23T03:14:19.173Z,98936.08
2023-05-23T03:16:46.788Z,98939.70
2023-05-23T03:19:14.862Z,98940.55
2023-05-23T03:21:42.575Z,98944.16
2023-05-23T03:24:10.787Z,98945.76
2023-05-23T03:26:38.500Z,98943.73
2023-05-23T03:29:06.818Z,98942.62
2023-05-23T03:31:34.575Z,98939.08
2023-05-23T03:34:02.920Z,98937.28
2023-05-23T03:36:33.454Z,98937.27
2023-05-23T03:39:01.182Z,98935.81
2023-05-23T03:41:28.665Z,98940.46
2023-05-23T03:43:56.495Z,98937.10
2023-05-23T03:46:24.133Z,98936.97
2023-05-23T03:48:52.184Z,98933.05
2023-05-23T03:51:19.822Z,98936.86
2023-05-23T03:53:47.578Z,98932.73
2023-05-23T03:56:15.140Z,98934.17
2023-05-23T03:58:42.697Z,98932.30
2023-05-23T04:01:13.743Z,98933.87
2023-05-23T04:03:41.376Z,98935.86
2023-05-23T04:06:09.061Z,98933.02
2023-05-23T04:08:42.225Z,98930.66
2023-05-23T04:11:09.934Z,98932.25
2023-05-23T04:13:39.141Z,98931.02
2023-05-23T04:16:07.276Z,98928.45
2023-05-23T04:18:34.842Z,98925.23
2023-05-23T04:21:02.655Z,98924.06
2023-05-23T04:23:31.503Z,98929.56
2023-05-23T04:25:59.414Z,98928.58
2023-05-23T04:28:32.688Z,98929.78
2023-05-23T04:31:03.061Z,98926.61
2023-05-23T04:33:34.506Z,98926.25
2023-05-23T04:36:03.794Z,98929.27
2023-05-23T04:38:32.407Z,98933.68
2023-05-23T04:41:01.344Z,98934.39
2023-05-23T04:43:54.596Z,98935.84
2023-05-23T04:46:34.968Z,98935.08
2023-05-23T04:49:10.257Z,98937.66
2023-05-23T04:51:38.574Z,98940.70
2023-05-23T04:54:22.215Z,98940.64
2023-05-23T04:56:49.964Z,98938.48
2023-05-23T04:59:19.845Z,98933.23
2023-05-23T05:01:47.356Z,98936.95
2023-05-23T05:04:15.783Z,98940.19
2023-05-23T05:06:43.548Z,98939.11
2023-05-23T05:09:11.218Z,98940.13
2023-05-23T05:11:39.078Z,98940.42
2023-05-23T05:14:07.341Z,98943.60
2023-05-23T05:16:36.577Z,98947.52
2023-05-23T05:19:04.363Z,98944.55
2023-05-23T05:21:32.683Z,98942.70
2023-05-23T05:24:00.246Z,98939.99
2023-05-23T05:26:28.138Z,98941.23
2023-05-23T05:28:56.587Z,98939.64
2023-05-23T05:31:24.080Z,98940.69
2023-05-23T05:33:51.563Z,98939.02
2023-05-23T05:39:51.315Z,98947.91
2023-05-23T05:42:19.312Z,98943.61
2023-05-23T05:44:48.199Z,98943.95
2023-05-23T05:47:16.013Z,98947.05
2023-05-23T05:49:43.697Z,98946.41
2023-05-23T05:52:11.313Z,98943.30
2023-05-23T05:54:38.985Z,98939.60
2023-05-23T05:57:06.620Z,98940.56
2023-05-23T05:59:34.281Z,98940.71
2023-05-23T06:02:02.210Z,98942.17
2023-05-23T06:04:30.055Z,98942.47
2023-05-23T06:06:58.425Z,98947.27
2023-05-23T06:09:26.080Z,98945.90
2023-05-23T06:11:53.745Z,98941.63
2023-05-23T06:14:21.511Z,98942.26
2023-05-23T06:16:49.717Z,98939.33
2023-05-23T06:19:17.883Z,98940.63
2023-05-23T06:21:48.492Z,98937.20
2023-05-23T06:24:16.623Z,98936.41
2023-05-23T06:26:44.180Z,98937.69
2023-05-23T06:29:11.739Z,98937.98
2023-05-23T06:31:39.550Z,98939.02
2023-05-23T06:34:07.229Z,98937.70
2023-05-23T06:36:34.950Z,98936.48
2023-05-23T06:39:02.792Z,98933.00
2023-05-23T06:41:55.130Z,98927.33
2023-05-23T06:44:22.635Z,98926.88
2023-05-23T06:46:57.850Z,98929.95
2023-05-23T06:49:25.812Z,98926.66
2023-05-23T06:51:53.811Z,98926.98
2023-05-23T06:54:21.589Z,98927.02
2023-05-23T06:56:50.118Z,98925.80
2023-05-23T06:59:19.630Z,98918.74
2023-05-23T07:01:47.490Z,98917.38
2023-05-23T07:04:15.526Z,98910.44
2023-05-23T07:06:43.219Z,98912.86
2023-05-23T07:09:12.115Z,98911.77
2023-05-23T07:11:41.766Z,98908.43
2023-05-23T07:14:09.991Z,98911.42
2023-05-23T07:16:41.106Z,98907.83
2023-05-23T07:19:09.236Z,98907.21
2023-05-23T07:30:05.303Z,98900.61
2023-05-23T07:32:33.478Z,98899.81
2023-05-23T07:35:01.323Z,98895.69
2023-05-23T07:37:29.121Z,98895.12
2023-05-23T07:39:56.678Z,98894.10
2023-05-23T07:42:24.414Z,98893.90
2023-05-23T07:44:52.182Z,98888.71
2023-05-23T07:50:55.286Z,98884.20
2023-05-23T07:53:23.791Z,98880.15
2023-05-23T08:00:52.472Z,98880.91
2023-05-23T08:03:43.944Z,98876.54
2023-05-23T08:06:19.823Z,98879.10
2023-05-23T08:08:48.160Z,98881.25
2023-05-23T08:11:15.880Z,98877.30
2023-05-23T08:13:46.834Z,98879.40
2023-05-23T08:16:38.182Z,98877.83
2023-05-23T08:19:12.639Z,98876.63
2023-05-23T08:21:40.614Z,98875.30
2023-05-23T08:24:08.254Z,98877.92
2023-05-23T08:26:38.137Z,98879.77
2023-05-23T08:29:07.518Z,98878.70
2023-05-23T08:31:37.374Z,98879.40
2023-05-23T08:34:07.245Z,98877.05
2023-05-23T08:36:36.683Z,98876.44
2023-05-23T08:39:05.015Z,98874.39
2023-05-23T08:41:38.083Z,98865.76
2023-05-23T08:44:10.079Z,98867.29
2023-05-23T08:46:46.374Z,98863.25
2023-05-23T08:49:19.615Z,98865.98
2023-05-23T08:51:47.245Z,98860.27
2023-05-23T08:54:19.076Z,98858.00
2023-05-23T08:56:46.532Z,98853.77
2023-05-23T08:59:14.067Z,98849.06
2023-05-23T09:01:43.529Z,98853.13
2023-05-23T09:04:12.711Z,98853.14
2023-05-23T09:06:55.763Z,98856.33
2023-05-23T09:09:23.677Z,98851.91
2023-05-23T09:11:52.028Z,98844.80
2023-05-23T09:14:20.096Z,98840.70
2023-05-23T09:16:49.716Z,98843.51
2023-05-23T09:19:19.822Z,98837.48
2023-05-23T09:21:53.942Z,98833.70
2023-05-23T09:24:37.292Z,98831.10
2023-05-23T09:27:07.707Z,98828.11
2023-05-23T09:29:40.063Z,98826.79
2023-05-23T09:32:14.515Z,98831.27
2023-05-23T09:35:04.263Z,98826.45
2023-05-23T09:37:46.216Z,98830.60
2023-05-23T09:40:16.755Z,98834.08
2023-05-23T09:42:55.460Z,98829.89
2023-05-23T09:45:30.135Z,98821.84
2023-05-23T09:47:58.077Z,98816.69
2023-05-23T09:50:31.042Z,98815.38
2023-05-23T09:52:58.593Z,98813.15
2023-05-23T09:55:28.861Z,98809.08
2023-05-23T09:57:59.070Z,98809.62
2023-05-23T10:00:29.113Z,98808.67
2023-05-23T10:03:17.645Z,98806.23
2023-05-23T10:05:48.899Z,98806.88
2023-05-23T10:08:28.237Z,98804.71
2023-05-23T10:10:58.632Z,98801.94
2023-05-23T10:13:27.294Z,98804.59
2023-05-23T10:16:36.394Z,98800.45
2023-05-23T10:19:07.960Z,98800.98
2023-05-23T10:21:39.484Z,98797.60
2023-05-23T10:24:07.599Z,98794.33
2023-05-23T10:26:35.249Z,98797.01
2023-05-23T10:29:02.744Z,98795.98
2023-05-23T10:31:30.499Z,98793.84
2023-05-23T10:34:36.716Z,98794.59
2023-05-23T10:37:04.780Z,98792.48
2023-05-23T10:39:54.453Z,98794.13
2023-05-23T10:42:37.498Z,98793.05
2023-05-23T10:45:15.491Z,98791.17
2023-05-23T10:47:43.158Z,98785.54
2023-05-23T10:50:15.317Z,98788.20
2023-05-23T10:52:43.278Z,98781.89
2023-05-23T10:55:19.927Z,98776.91
2023-05-23T10:57:48.479Z,98776.87
2023-05-23T11:00:17.585Z,98774.50
2023-05-23T11:02:55.832Z,98771.45
2023-05-23T11:05:24.905Z,98771.93
2023-05-23T11:08:14.735Z,98774.08
2023-05-23T11:11:02.654Z,98770.73
2023-05-23T11:14:00.873Z,98772.10
2023-05-23T11:16:29.409Z,98769.55
2023-05-23T11:19:19.334Z,98767.96
2023-05-23T11:22:02.186Z,98769.39
2023-05-23T11:24:52.700Z,98772.56
2023-05-23T11:27:26.717Z,98765.89
2023-05-23T11:30:02.272Z,98762.75
2023-05-23T11:32:31.453Z,98764.77
2023-05-23T11:35:06.459Z,98764.31
2023-05-23T11:37:34.142Z,98763.73
2023-05-23T11:40:27.508Z,98760.31
2023-05-23T11:42:55.866Z,98761.33
2023-05-23T11:45:23.992Z,98759.71
2023-05-23T11:47:51.746Z,98755.71
2023-05-23T11:50:20.915Z,98754.73
2023-05-23T11:52:51.943Z,98747.29
2023-05-23T11:55:23.378Z,98746.92
2023-05-23T11:57:52.089Z,98749.73
2023-05-23T12:00:20.461Z,98747.13
2023-05-23T12:02:49.165Z,98750.21
2023-05-23T12:05:16.990Z,98744.00
2023-05-23T12:07:48.560Z,98747.20
2023-05-23T12:10:17.030Z,98747.05
2023-05-23T12:12:48.954Z,98752.03
2023-05-23T12:15:17.117Z,98751.77
2023-05-23T12:17:46.454Z,98752.81
2023-05-23T12:20:14.388Z,98749.67
2023-05-23T12:22:42.431Z,98744.80
2023-05-23T12:25:13.033Z,98746.02
2023-05-23T12:27:42.045Z,98743.69
2023-05-23T12:30:11.451Z,98740.88
2023-05-23T12:32:42.858Z,98738.61
2023-05-23T12:35:13.307Z,98736.38
2023-05-23T12:37:41.544Z,98731.98
2023-05-23T12:40:16.172Z,98733.20
2023-05-23T12:42:51.761Z,98730.30
2023-05-23T12:45:21.051Z,98731.33
2023-05-23T12:47:50.252Z,98729.55
2023-05-23T12:50:19.000Z,98724.48
2023-05-23T12:52:46.491Z,98722.18
2023-05-23T12:55:14.391Z,98719.88
2023-05-23T12:57:42.437Z,98719.94
2023-05-23T13:00:10.891Z,98717.52
2023-05-23T13:02:40.851Z,98712.58
2023-05-23T13:05:09.519Z,98716.38
2023-05-23T13:07:37.988Z,98712.33
2023-05-23T13:10:06.194Z,98708.48
2023-05-23T13:12:34.661Z,98705.16
2023-05-23T13:15:02.293Z,98704.67
2023-05-23T13:17:30.521Z,98705.96
2023-05-23T13:19:58.599Z,98707.11
2023-05-23T13:22:26.325Z,98709.66
2023-05-23T13:24:53.847Z,98705.50
2023-05-23T13:27:21.738Z,98704.90
2023-05-23T13:29:49.310Z,98701.54
2023-05-23T13:32:16.866Z,98706.30
2023-05-23T13:34:44.475Z,98704.31
2023-05-23T13:37:11.980Z,98705.88
2023-05-23T13:39:39.442Z,98714.87
2023-05-23T13:42:08.089Z,98710.40
2023-05-23T13:44:36.189Z,98710.99
2023-05-23T13:47:12.949Z,98709.61
2023-05-23T13:49:42.041Z,98709.24
2023-05-23T13:52:09.730Z,98704.91
2023-05-23T13:54:37.481Z,98705.67
2023-05-23T13:57:05.848Z,98705.00
2023-05-23T13:59:33.460Z,98700.52
2023-05-23T14:02:01.117Z,98702.36
2023-05-23T14:04:28.809Z,98697.44
2023-05-23T14:06:56.343Z,98697.71
2023-05-23T14:09:23.809Z,98693.39
2023-05-23T14:11:54.125Z,98693.08
2023-05-23T14:14:22.218Z,98693.54
2023-05-23T14:16:51.250Z,98691.54
2023-05-23T14:19:19.532Z,98689.65
2023-05-23T14:25:11.281Z,98691.00
2023-05-23T14:27:40.251Z,98691.89
2023-05-23T14:30:08.505Z,98688.63
2023-05-23T14:32:39.344Z,98687.79
2023-05-23T14:35:07.980Z,98687.25
2023-05-23T14:37:35.704Z,98684.13
2023-05-23T14:40:05.252Z,98685.86
2023-05-23T14:42:33.196Z,98685.95
2023-05-23T14:45:00.907Z,98685.65
2023-05-23T14:47:28.581Z,98681.93
2023-05-23T14:49:56.286Z,98678.85
2023-05-23T14:52:24.372Z,98675.75
2023-05-23T14:54:52.136Z,98673.14
2023-05-23T14:57:19.807Z,98672.51
2023-05-23T14:59:47.653Z,98668.49
2023-05-23T15:02:15.537Z,98664.39
2023-05-23T15:04:43.588Z,98657.02
2023-05-23T15:07:11.260Z,98657.50
2023-05-23T15:09:38.873Z,98653.86
2023-05-23T15:12:09.753Z,98656.23
2023-05-23T15:14:37.428Z,98652.84
2023-05-23T15:17:08.300Z,98659.21
2023-05-23T15:19:36.747Z,98655.27
2023-05-23T15:22:06.034Z,98654.69
2023-05-23T15:24:35.067Z,98652.20
2023-05-23T15:27:15.691Z,98649.45
2023-05-23T15:29:47.008Z,98645.33
2023-05-23T15:32:14.749Z,98644.02
2023-05-23T15:34:42.800Z,98644.48
2023-05-23T15:37:11.092Z,98644.33
2023-05-23T15:39:38.567Z,98644.61
2023-05-23T15:42:06.204Z,98645.84
2023-05-23T15:44:33.963Z,98644.95
2023-05-23T15:47:10.436Z,98646.06
2023-05-23T15:49:38.539Z,98643.09
2023-05-23T15:52:06.300Z,98643.33
2023-05-23T15:54:34.005Z,98643.88
2023-05-23T15:57:01.497Z,98645.92
2023-05-23T15:59:29.159Z,98644.85
2023-05-23T16:01:57.449Z,98641.15
2023-05-23T16:04:25.261Z,98637.56
2023-05-23T16:06:52.698Z,98638.56
2023-05-23T16:09:20.254Z,98638.84
2023-05-23T16:11:47.840Z,98648.42
2023-05-23T16:14:16.319Z,98647.41
2023-05-23T16:16:44.224Z,98642.69
2023-05-23T16:19:11.907Z,98641.89
2023-05-23T16:21:39.535Z,98641.76
2023-05-23T16:24:07.421Z,98645.86
2023-05-23T16:26:35.067Z,98645.25
2023-05-23T16:29:03.137Z,98648.66
2023-05-23T16:31:30.833Z,98649.22
2023-05-23T16:33:59.595Z,98651.02
2023-05-23T16:36:27.890Z,98647.90
2023-05-23T16:38:57.130Z,98647.95
2023-05-23T16:41:24.712Z,98647.58
2023-05-23T16:43:52.369Z,98647.70
2023-05-23T16:46:22.261Z,98648.95
2023-05-23T16:48:50.151Z,98647.95
2023-05-23T16:51:19.160Z,98651.86
2023-05-23T16:53:46.798Z,98654.91
2023-05-23T16:56:14.757Z,98655.38
2023-05-23T16:58:42.308Z,98652.50
2023-05-23T17:01:09.941Z,98651.88
2023-05-23T17:03:37.622Z,98659.00
2023-05-23T17:06:05.749Z,98650.60
2023-05-23T17:08:33.249Z,98654.77
2023-05-23T17:11:00.814Z,98650.83
2023-05-23T17:13:28.616Z,98651.83
2023-05-23T17:15:57.163Z,98652.95
2023-05-23T17:18:24.707Z,98650.65
2023-05-23T17:20:52.225Z,98649.63
2023-05-23T17:23:19.861Z,98648.55
2023-05-23T17:25:47.514Z,98653.77
2023-05-23T17:28:15.075Z,98654.27
2023-05-23T17:30:42.873Z,98651.66
2023-05-23T17:33:13.392Z,98655.86
2023-05-23T17:35:41.183Z,98655.73
2023-05-23T17:38:08.874Z,98654.15
2023-05-23T17:40:36.445Z,98660.76
2023-05-23T17:43:04.066Z,98664.17
2023-05-23T17:45:31.709Z,98658.14
2023-05-23T17:48:03.832Z,98659.53
2023-05-23T17:50:32.379Z,98661.13
2023-05-23T17:53:02.762Z,98659.00
2023-05-23T17:55:31.851Z,98661.05
2023-05-23T17:57:59.427Z,98661.39
2023-05-23T18:00:27.293Z,98665.79
2023-05-23T18:02:54.887Z,98662.67
2023-05-23T18:05:23.762Z,98665.11
2023-05-23T18:07:51.323Z,98664.52
2023-05-23T18:10:18.973Z,98670.80
2023-05-23T18:12:46.586Z,98671.80
2023-05-23T18:15:14.162Z,98672.86
2023-05-23T18:17:41.976Z,98677.05
2023-05-23T18:20:10.517Z,98679.24
2023-05-23T18:22:38.167Z,98680.89
2023-05-23T18:25:06.888Z,98685.02
2023-05-23T18:27:34.404Z,98686.92
2023-05-23T18:30:02.016Z,98689.02
2023-05-23T18:32:30.323Z,98691.48
2023-05-23T18:34:58.016Z,98689.30
2023-05-23T18:37:25.488Z,98689.15
2023-05-23T18:39:58.033Z,98685.24
2023-05-23T18:42:25.675Z,98685.61
2023-05-23T18:44:53.194Z,98686.67
2023-05-23T18:47:22.743Z,98685.27
2023-05-23T18:49:51.784Z,98688.73
2023-05-23T18:52:20.511Z,98692.42
2023-05-23T18:54:50.577Z,98693.09
2023-05-23T18:57:20.593Z,98693.70
2023-05-23T18:59:48.856Z,98697.70
2023-05-23T19:02:16.452Z,98696.54
2023-05-23T19:04:44.008Z,98697.32
2023-05-23T19:07:11.771Z,98695.33
2023-05-23T19:09:39.282Z,98698.58
2023-05-23T19:12:07.307Z,98698.46
2023-05-23T19:14:35.037Z,98701.48
2023-05-23T19:17:05.992Z,98700.66
2023-05-23T19:19:35.019Z,98701.33
2023-05-23T19:22:02.608Z,98703.59
2023-05-23T19:24:30.312Z,98708.16
2023-05-23T19:26:57.960Z,98702.63
2023-05-23T19:29:26.048Z,98704.59
2023-05-23T19:31:55.001Z,98706.49
2023-05-23T19:34:22.683Z,98705.92
2023-05-23T19:36:50.255Z,98703.08
2023-05-23T19:39:17.889Z,98707.98
2023-05-23T19:41:45.460Z,98708.95
2023-05-23T19:44:13.454Z,98710.34
2023-05-23T19:46:41.076Z,98706.38
2023-05-23T19:49:09.148Z,98709.75
2023-05-23T19:51:46.844Z,98709.79
2023-05-23T19:54:16.846Z,98711.71
2023-05-23T19:56:45.965Z,98712.98
2023-05-23T19:59:14.220Z,98715.60
2023-05-23T20:01:41.943Z,98717.30
2023-05-23T20:04:13.000Z,98716.71
2023-05-23T20:06:40.796Z,98714.38
2023-05-23T20:09:08.664Z,98717.02
2023-05-23T20:11:36.148Z,98712.97
2023-05-23T20:14:03.675Z,98711.48
2023-05-23T20:16:31.254Z,98719.16
2023-05-23T20:18:58.929Z,98720.85
2023-05-23T20:21:26.366Z,98721.27
2023-05-23T20:23:54.922Z,98721.67
2023-05-23T20:26:22.908Z,98720.20
2023-05-23T20:28:50.676Z,98723.92
2023-05-23T20:31:19.224Z,98724.54
2023-05-23T20:33:46.834Z,98725.25
2023-05-23T20:36:14.393Z,98724.08
2023-05-23T20:38:42.033Z,98726.19
2023-05-23T20:41:09.707Z,98723.86
2023-05-23T20:43:40.128Z,98722.84
2023-05-23T20:46:09.358Z,98723.00
2023-05-23T20:48:37.002Z,98725.76
2023-05-23T20:51:06.106Z,98725.17
2023-05-23T20:53:34.344Z,98723.55
2023-05-23T20:56:02.723Z,98727.74
2023-05-23T20:58:30.163Z,98727.71
2023-05-23T21:00:58.980Z,98727.89
2023-05-23T21:03:26.911Z,98724.43
2023-05-23T21:05:55.403Z,98724.14
2023-05-23T21:08:23.056Z,98723.59
2023-05-23T21:10:53.220Z,98729.61
2023-05-23T21:13:21.985Z,98732.20
2023-05-23T21:15:49.949Z,98736.02
2023-05-23T21:18:17.365Z,98734.12
2023-05-23T21:20:45.150Z,98733.31
2023-05-23T21:23:12.757Z,98734.27
2023-05-23T21:25:40.185Z,98733.41
2023-05-23T21:28:07.844Z,98734.21
2023-05-23T21:30:35.554Z,98731.11
2023-05-23T21:33:03.425Z,98735.40
2023-05-23T21:35:31.099Z,98733.50
2023-05-23T21:37:58.653Z,98732.15
2023-05-23T21:40:27.150Z,98740.20
2023-05-23T21:42:54.732Z,98738.27
2023-05-23T21:45:22.491Z,98740.85
2023-05-23T21:47:50.141Z,98741.28
2023-05-23T21:50:18.019Z,98741.23
2023-05-23T21:52:45.677Z,98743.11
2023-05-23T21:55:13.380Z,98741.04
2023-05-23T21:57:41.106Z,98743.27
2023-05-23T22:00:12.850Z,98744.39
2023-05-23T22:02:40.852Z,98743.99
2023-05-23T22:05:09.114Z,98747.89
2023-05-23T22:07:36.983Z,98746.92
2023-05-23T22:10:05.041Z,98748.27
2023-05-23T22:12:32.603Z,98749.71
2023-05-23T22:15:00.192Z,98745.23
2023-05-23T22:17:27.770Z,98740.70
2023-05-23T22:19:58.348Z,98740.93
2023-05-23T22:22:26.114Z,98737.11
2023-05-23T22:24:53.878Z,98739.41
2023-05-23T22:27:21.467Z,98733.90
2023-05-23T22:29:48.928Z,98739.58
2023-05-23T22:32:16.550Z,98738.29
2023-05-23T22:34:45.521Z,98738.60
2023-05-23T22:37:13.105Z,98743.54
2023-05-23T22:39:40.665Z,98747.77
2023-05-23T22:42:08.354Z,98751.52
2023-05-23T22:44:36.594Z,98756.17
2023-05-23T22:47:04.606Z,98759.35
2023-05-23T22:49:32.328Z,98758.46
2023-05-23T22:51:59.891Z,98758.21
2023-05-23T22:54:27.444Z,98758.09
2023-05-23T22:56:55.892Z,98755.86
2023-05-23T22:59:23.348Z,98752.02
2023-05-23T23:01:51.308Z,98749.95
2023-05-23T23:04:23.810Z,98751.73
2023-05-23T23:06:53.889Z,98748.86
2023-05-23T23:09:21.625Z,98748.52
2023-05-23T23:11:49.093Z,98750.45
2023-05-23T23:14:16.618Z,98754.60
2023-05-23T23:16:46.498Z,98750.33
2023-05-23T23:19:14.092Z,98752.77
2023-05-23T23:21:41.535Z,98753.16
2023-05-23T23:24:09.028Z,98751.90
2023-05-23T23:26:36.784Z,98747.35
2023-05-23T23:29:04.431Z,98748.66
2023-05-23T23:31:31.929Z,98745.39
2023-05-23T23:33:59.641Z,98744.72
2023-05-23T23:36:27.244Z,98746.77
2023-05-23T23:38:54.671Z,98743.92
2023-05-23T23:41:22.998Z,98742.84
2023-05-23T23:43:50.420Z,98739.62
2023-05-23T23:46:19.053Z,98733.61
2023-05-23T23:48:46.831Z,98736.63
2023-05-23T23:51:14.486Z,98731.87
2023-05-23T23:53:42.078Z,98732.14
2023-05-23T23:56:09.578Z,98730.91
2023-05-23T23:58:37.371Z,98729.26
